createdAt,value
2023-06-23T00:00:54.224Z,99.90
2023-06-23T00:03:21.677Z,99.90
2023-06-23T00:05:49.346Z,99.90
2023-06-23T00:08:16.624Z,99.90
2023-06-23T00:10:44.829Z,99.90
2023-06-23T00:13:12.982Z,99.90
2023-06-23T00:15:40.770Z,99.90
2023-06-23T00:18:08.247Z,99.90
2023-06-23T00:20:35.614Z,99.90
2023-06-23T00:23:03.084Z,99.90
2023-06-23T00:25:30.702Z,99.90
2023-06-23T00:27:58.223Z,99.90
2023-06-23T00:30:25.603Z,99.90
2023-06-23T00:32:53.333Z,99.90
2023-06-23T00:35:20.776Z,99.90
2023-06-23T00:37:48.272Z,99.90
2023-06-23T00:40:17.252Z,99.90
2023-06-23T00:42:45.796Z,99.90
2023-06-23T00:45:14.403Z,99.90
2023-06-23T00:47:46.108Z,99.90
2023-06-23T00:50:16.910Z,99.90
2023-06-23T00:52:52.037Z,99.90
2023-06-23T00:55:27.686Z,99.90
2023-06-23T00:57:56.605Z,99.90
2023-06-23T01:00:25.840Z,99.90
2023-06-23T01:02:56.301Z,99.90
2023-06-23T01:05:28.090Z,99.90
2023-06-23T01:08:07.845Z,99.90
2023-06-23T01:11:01.187Z,99.90
2023-06-23T01:14:11.450Z,99.90
2023-06-23T01:16:50.208Z,99.90
2023-06-23T01:19:49.500Z,99.90
2023-06-23T01:22:34.767Z,99.90
2023-06-23T01:25:15.684Z,99.90
2023-06-23T01:28:07.563Z,99.90
2023-06-23T01:30:36.934Z,99.90
2023-06-23T01:33:10.290Z,99.90
2023-06-23T01:35:44.223Z,99.90
2023-06-23T01:38:39.803Z,99.90
2023-06-23T01:41:14.230Z,99.90
2023-06-23T01:43:45.825Z,99.90
2023-06-23T01:46:26.983Z,99.90
2023-06-23T01:48:59.096Z,99.90
2023-06-23T01:51:28.636Z,99.90
2023-06-23T01:53:57.413Z,99.90
2023-06-23T01:56:26.670Z,99.90
2023-06-23T01:58:55.024Z,99.90
2023-06-23T02:01:23.378Z,99.90
2023-06-23T02:03:51.841Z,99.90
2023-06-23T02:06:21.391Z,99.90
2023-06-23T02:08:49.581Z,99.90
2023-06-23T02:11:18.034Z,99.90
2023-06-23T02:13:46.862Z,99.90
2023-06-23T02:16:15.282Z,99.90
2023-06-23T02:18:44.255Z,99.90
2023-06-23T02:21:13.720Z,99.90
2023-06-23T02:23:41.602Z,99.90
2023-06-23T02:26:11.373Z,96.50
2023-06-23T02:28:39.330Z,95.10
2023-06-23T02:31:09.745Z,74.80
2023-06-23T02:33:40.036Z,60.50
2023-06-23T02:36:10.715Z,52.60
2023-06-23T02:38:40.274Z,48.50
2023-06-23T02:41:10.109Z,40.20
2023-06-23T02:43:47.698Z,33.70
2023-06-23T02:46:18.400Z,31.00
2023-06-23T02:48:48.438Z,29.20
2023-06-23T02:51:21.347Z,26.50
2023-06-23T02:54:07.150Z,25.60
2023-06-23T02:56:42.425Z,24.70
2023-06-23T02:59:13.668Z,25.00
2023-06-23T03:01:46.305Z,23.20
2023-06-23T03:04:13.933Z,22.50
2023-06-23T03:06:42.164Z,22.60
2023-06-23T03:09:10.524Z,22.30
2023-06-23T03:11:38.522Z,21.70
2023-06-23T03:14:06.380Z,21.30
2023-06-23T03:17:01.136Z,21.70
2023-06-23T03:19:45.010Z,21.20
2023-06-23T03:22:24.002Z,21.20
2023-06-23T03:24:54.541Z,21.40
2023-06-23T03:27:24.802Z,20.10
2023-06-23T03:30:00.963Z,19.50
2023-06-23T03:32:33.054Z,21.30
2023-06-23T03:35:05.431Z,18.60
2023-06-23T03:37:34.999Z,18.60
2023-06-23T03:40:13.645Z,17.80
2023-06-23T03:43:05.387Z,18.00
2023-06-23T03:45:35.989Z,17.40
2023-06-23T03:48:07.382Z,18.80
2023-06-23T03:50:37.510Z,17.70
2023-06-23T03:53:06.735Z,18.70
2023-06-23T03:55:35.472Z,18.80
2023-06-23T03:58:06.232Z,19.40
2023-06-23T04:00:36.450Z,19.80
2023-06-23T04:03:08.365Z,20.40
2023-06-23T04:05:40.352Z,20.90
2023-06-23T04:08:09.279Z,22.70
2023-06-23T04:10:38.691Z,21.30
2023-06-23T04:13:07.174Z,21.60
2023-06-23T04:15:39.069Z,21.70
2023-06-23T04:18:08.738Z,22.00
2023-06-23T04:20:39.497Z,21.30
2023-06-23T04:23:07.348Z,22.10
2023-06-23T04:25:35.103Z,22.10
2023-06-23T04:28:05.987Z,23.60
2023-06-23T04:30:35.657Z,22.00
2023-06-23T04:33:03.282Z,21.60
2023-06-23T04:35:31.177Z,21.40
2023-06-23T04:38:07.142Z,22.10
2023-06-23T04:40:52.610Z,23.60
2023-06-23T04:43:27.764Z,23.70
2023-06-23T04:45:59.878Z,23.40
2023-06-23T04:48:35.689Z,24.00
2023-06-23T04:51:06.582Z,24.50
2023-06-23T04:53:38.544Z,24.80
2023-06-23T04:56:09.138Z,26.30
2023-06-23T04:58:40.260Z,25.40
2023-06-23T05:01:11.391Z,23.70
2023-06-23T05:03:40.020Z,24.90
2023-06-23T05:06:09.694Z,24.40
2023-06-23T05:08:37.474Z,23.00
2023-06-23T05:11:07.460Z,24.60
2023-06-23T05:13:39.037Z,24.00
2023-06-23T05:16:11.863Z,24.30
2023-06-23T05:18:40.426Z,25.10
2023-06-23T05:21:09.464Z,24.10
2023-06-23T05:26:15.497Z,22.10
2023-06-23T05:28:44.814Z,22.10
2023-06-23T05:31:13.683Z,23.10
2023-06-23T05:33:43.386Z,23.00
2023-06-23T05:36:13.393Z,22.50
2023-06-23T05:38:43.625Z,22.10
2023-06-23T05:41:11.433Z,22.80
2023-06-23T05:43:40.109Z,22.90
2023-06-23T05:46:13.611Z,22.50
2023-06-23T05:48:45.648Z,22.80
2023-06-23T05:51:17.615Z,24.10
2023-06-23T05:53:47.084Z,24.60
2023-06-23T05:56:28.310Z,24.10
2023-06-23T05:58:58.724Z,25.80
2023-06-23T06:01:28.531Z,27.50
2023-06-23T06:04:08.817Z,28.30
2023-06-23T06:06:38.684Z,29.80
2023-06-23T06:09:09.015Z,31.10
2023-06-23T06:11:37.906Z,29.40
2023-06-23T06:14:09.036Z,31.60
2023-06-23T06:16:37.742Z,31.00
2023-06-23T06:19:06.477Z,30.50
2023-06-23T06:21:36.101Z,29.50
2023-06-23T06:24:06.184Z,29.30
2023-06-23T06:26:33.461Z,29.00
2023-06-23T06:29:02.438Z,29.10
2023-06-23T06:31:31.598Z,28.90
2023-06-23T06:34:01.725Z,28.60
2023-06-23T06:36:32.996Z,28.20
2023-06-23T06:39:02.183Z,27.80
2023-06-23T06:41:32.205Z,27.70
2023-06-23T06:43:59.549Z,29.10
2023-06-23T06:46:28.937Z,30.00
2023-06-23T06:48:57.766Z,29.30
2023-06-23T06:51:28.215Z,29.40
2023-06-23T06:53:55.677Z,29.90
2023-06-23T06:56:23.342Z,30.70
2023-06-23T06:58:51.601Z,31.00
2023-06-23T07:01:19.417Z,30.40
2023-06-23T07:03:48.212Z,31.60
2023-06-23T07:06:15.950Z,31.40
2023-06-23T07:08:44.185Z,31.80
2023-06-23T07:11:14.359Z,31.50
2023-06-23T07:13:41.741Z,30.90
2023-06-23T07:16:09.182Z,29.60
2023-06-23T07:18:36.487Z,30.40
2023-06-23T07:21:05.841Z,31.10
2023-06-23T07:23:33.151Z,32.40
2023-06-23T07:26:00.644Z,33.20
2023-06-23T07:28:27.895Z,36.10
2023-06-23T07:30:56.065Z,38.10
2023-06-23T07:33:23.395Z,40.70
2023-06-23T07:35:50.800Z,42.50
2023-06-23T07:38:18.186Z,42.10
2023-06-23T07:40:45.630Z,39.10
2023-06-23T07:43:13.403Z,37.80
2023-06-23T07:45:40.761Z,38.00
2023-06-23T07:48:08.135Z,36.00
2023-06-23T07:50:35.503Z,35.10
2023-06-23T07:53:02.781Z,35.50
2023-06-23T07:55:30.045Z,36.40
2023-06-23T07:57:57.401Z,37.50
2023-06-23T08:00:24.915Z,37.30
2023-06-23T08:02:52.662Z,37.30
2023-06-23T08:05:20.202Z,37.60
2023-06-23T08:07:48.225Z,36.40
2023-06-23T08:10:15.558Z,36.00
2023-06-23T08:12:42.856Z,33.10
2023-06-23T08:15:10.723Z,33.70
2023-06-23T08:17:38.637Z,33.10
2023-06-23T08:20:06.665Z,33.00
2023-06-23T08:22:33.987Z,29.70
2023-06-23T08:25:01.406Z,30.00
2023-06-23T08:27:28.665Z,29.20
2023-06-23T08:29:56.086Z,29.80
2023-06-23T08:32:23.558Z,33.10
2023-06-23T08:34:51.142Z,35.60
2023-06-23T08:37:18.392Z,36.80
2023-06-23T08:39:45.800Z,35.90
2023-06-23T08:42:14.049Z,35.10
2023-06-23T08:44:46.136Z,32.80
2023-06-23T08:47:14.773Z,32.20
2023-06-23T08:49:43.924Z,31.60
2023-06-23T08:52:12.734Z,31.30
2023-06-23T08:54:40.284Z,30.20
2023-06-23T08:57:08.407Z,32.40
2023-06-23T08:59:35.779Z,31.20
2023-06-23T09:02:03.213Z,32.70
2023-06-23T09:04:30.680Z,52.90
2023-06-23T09:06:58.037Z,36.80
2023-06-23T09:09:25.596Z,34.10
2023-06-23T09:11:53.247Z,32.80
2023-06-23T09:14:21.454Z,30.60
2023-06-23T09:16:49.557Z,36.50
2023-06-23T09:19:19.649Z,34.70
2023-06-23T09:21:48.518Z,32.50
2023-06-23T09:24:16.017Z,34.10
2023-06-23T09:26:51.083Z,33.90
2023-06-23T09:29:23.743Z,32.10
2023-06-23T09:31:53.226Z,30.60
2023-06-23T09:34:22.968Z,27.80
2023-06-23T09:36:51.085Z,30.00
2023-06-23T09:39:18.389Z,28.60
2023-06-23T09:41:59.141Z,29.80
2023-06-23T09:44:37.376Z,28.90
2023-06-23T09:47:06.124Z,28.80
2023-06-23T09:49:40.824Z,26.70
2023-06-23T09:52:09.736Z,22.30
2023-06-23T09:54:40.623Z,14.40
2023-06-23T09:57:15.772Z,7.20
2023-06-23T09:59:49.720Z,2.70
2023-06-23T10:02:23.309Z,1.00
2023-06-23T10:04:51.571Z,1.00
2023-06-23T10:07:24.393Z,1.00
2023-06-23T10:10:19.941Z,1.00
2023-06-23T10:12:47.935Z,1.00
2023-06-23T10:15:15.421Z,1.00
2023-06-23T10:17:42.974Z,1.00
2023-06-23T10:20:10.475Z,1.00
2023-06-23T10:22:39.289Z,1.00
2023-06-23T10:25:10.817Z,1.00
2023-06-23T10:27:41.590Z,1.00
2023-06-23T10:30:11.978Z,1.00
2023-06-23T10:32:44.297Z,1.00
2023-06-23T10:35:12.918Z,1.00
2023-06-23T10:37:46.410Z,1.00
2023-06-23T10:40:29.704Z,1.00
2023-06-23T10:42:58.026Z,1.00
2023-06-23T10:45:26.674Z,1.00
2023-06-23T10:47:54.352Z,1.00
2023-06-23T10:50:23.552Z,7.40
2023-06-23T10:52:50.930Z,10.10
2023-06-23T10:55:48.580Z,5.90
2023-06-23T10:58:26.586Z,7.80
2023-06-23T11:00:56.624Z,13.90
2023-06-23T11:03:32.741Z,99.90
2023-06-23T11:06:10.933Z,99.90
2023-06-23T11:08:44.274Z,99.90
2023-06-23T11:11:13.275Z,99.90
2023-06-23T11:13:47.635Z,99.90
2023-06-23T11:16:20.218Z,99.90
2023-06-23T11:18:52.604Z,99.90
2023-06-23T11:21:30.727Z,99.90
2023-06-23T11:24:10.955Z,50.60
2023-06-23T11:26:46.112Z,46.20
2023-06-23T11:29:15.781Z,23.90
2023-06-23T11:32:07.848Z,36.90
2023-06-23T11:35:02.736Z,43.00
2023-06-23T11:37:32.572Z,26.60
2023-06-23T11:40:02.214Z,71.80
2023-06-23T11:42:30.423Z,99.90
2023-06-23T11:44:58.318Z,48.30
2023-06-23T11:47:30.040Z,76.90
2023-06-23T11:50:03.751Z,81.40
2023-06-23T11:52:31.216Z,43.80
2023-06-23T11:54:58.839Z,93.50
2023-06-23T11:57:26.199Z,99.90
2023-06-23T11:59:54.173Z,99.90
2023-06-23T12:02:22.093Z,99.90
2023-06-23T12:04:50.596Z,99.90
2023-06-23T12:07:18.272Z,99.90
2023-06-23T12:09:46.938Z,98.60
2023-06-23T12:12:17.321Z,99.90
2023-06-23T12:14:45.707Z,99.90
2023-06-23T12:17:14.364Z,99.90
2023-06-23T12:19:46.299Z,99.90
2023-06-23T12:22:19.396Z,99.90
2023-06-23T12:24:47.794Z,99.90
2023-06-23T12:27:15.748Z,99.90
2023-06-23T12:29:43.128Z,99.90
2023-06-23T12:32:10.742Z,99.90
2023-06-23T12:34:46.463Z,99.90
2023-06-23T12:37:19.111Z,99.90
2023-06-23T12:39:53.905Z,99.90
2023-06-23T12:42:22.602Z,99.90
2023-06-23T12:44:51.015Z,99.90
2023-06-23T12:47:21.228Z,99.90
2023-06-23T12:49:49.299Z,99.90
2023-06-23T12:52:16.823Z,99.90
2023-06-23T12:54:45.186Z,99.90
2023-06-23T12:57:13.146Z,99.90
2023-06-23T12:59:40.570Z,99.10
2023-06-23T13:02:08.022Z,99.90
2023-06-23T13:04:35.398Z,99.90
2023-06-23T13:07:02.774Z,99.90
2023-06-23T13:09:30.337Z,98.80
2023-06-23T13:11:57.755Z,99.90
2023-06-23T13:14:25.637Z,99.90
2023-06-23T13:16:53.017Z,99.90
2023-06-23T13:19:22.347Z,99.90
2023-06-23T13:21:54.886Z,99.90
2023-06-23T13:24:22.705Z,99.90
2023-06-23T13:26:52.230Z,99.90
2023-06-23T13:29:20.984Z,99.90
2023-06-23T13:31:51.740Z,99.90
2023-06-23T13:34:19.793Z,99.90
2023-06-23T13:36:47.254Z,99.90
2023-06-23T13:39:14.631Z,99.90
2023-06-23T13:41:42.025Z,99.90
2023-06-23T13:44:10.124Z,99.90
2023-06-23T13:46:37.440Z,99.90
2023-06-23T13:49:04.741Z,99.90
2023-06-23T13:51:32.041Z,99.90
2023-06-23T13:53:59.397Z,78.50
2023-06-23T13:56:26.822Z,91.60
2023-06-23T13:58:54.066Z,99.90
2023-06-23T14:01:21.344Z,99.90
2023-06-23T14:03:51.416Z,99.90
2023-06-23T14:06:20.025Z,99.90
2023-06-23T14:08:49.625Z,99.90
2023-06-23T14:11:17.026Z,99.90
2023-06-23T14:13:44.408Z,99.90
2023-06-23T14:16:15.767Z,99.90
2023-06-23T14:18:43.192Z,99.90
2023-06-23T14:21:11.176Z,99.90
2023-06-23T14:23:38.606Z,99.90
2023-06-23T14:26:05.880Z,99.90
2023-06-23T14:28:33.310Z,99.90
2023-06-23T14:31:00.991Z,99.90
2023-06-23T14:33:28.313Z,99.90
2023-06-23T14:35:55.622Z,99.90
2023-06-23T14:38:23.003Z,99.90
2023-06-23T14:40:50.216Z,99.90
2023-06-23T14:43:17.686Z,99.90
2023-06-23T14:45:51.066Z,99.90
2023-06-23T14:48:19.622Z,99.90
2023-06-23T14:50:47.694Z,99.90
2023-06-23T14:53:15.289Z,99.90
2023-06-23T14:55:42.625Z,99.90
2023-06-23T14:58:10.014Z,99.90
2023-06-23T15:00:37.344Z,99.90
2023-06-23T15:03:04.777Z,99.90
2023-06-23T15:05:32.591Z,99.90
2023-06-23T15:08:00.277Z,99.90
2023-06-23T15:10:27.548Z,99.90
2023-06-23T15:12:54.786Z,99.90
2023-06-23T15:15:22.121Z,99.90
2023-06-23T15:17:49.438Z,58.60
2023-06-23T15:20:16.846Z,92.10
2023-06-23T15:22:44.980Z,99.90
2023-06-23T15:25:12.494Z,99.90
2023-06-23T15:27:39.964Z,40.40
2023-06-23T15:30:07.966Z,28.00
2023-06-23T15:32:35.285Z,22.90
2023-06-23T15:35:02.769Z,27.50
2023-06-23T15:37:30.095Z,38.20
2023-06-23T15:39:57.773Z,40.80
2023-06-23T15:42:25.427Z,32.40
2023-06-23T15:44:52.716Z,54.00
2023-06-23T15:47:20.020Z,51.20
2023-06-23T15:49:47.434Z,30.00
2023-06-23T15:52:14.685Z,22.50
2023-06-23T15:54:42.012Z,15.90
2023-06-23T15:57:11.902Z,11.00
2023-06-23T15:59:39.599Z,12.60
2023-06-23T16:02:07.366Z,6.90
2023-06-23T16:04:34.722Z,5.00
2023-06-23T16:07:02.210Z,6.20
2023-06-23T16:09:29.559Z,4.60
2023-06-23T16:11:56.911Z,4.50
2023-06-23T16:14:24.273Z,9.90
2023-06-23T16:16:51.572Z,15.70
2023-06-23T16:19:18.891Z,16.60
2023-06-23T16:21:48.930Z,22.10
2023-06-23T16:24:16.639Z,27.50
2023-06-23T16:26:43.995Z,30.70
2023-06-23T16:29:11.325Z,36.40
2023-06-23T16:31:39.303Z,36.90
2023-06-23T16:34:06.947Z,47.10
2023-06-23T16:36:34.186Z,30.60
2023-06-23T16:39:01.673Z,54.60
2023-06-23T16:41:28.953Z,31.20
2023-06-23T16:43:56.220Z,37.30
2023-06-23T16:46:23.506Z,52.40
2023-06-23T16:48:51.760Z,61.40
2023-06-23T16:51:28.599Z,50.50
2023-06-23T16:54:04.479Z,36.50
2023-06-23T16:56:31.821Z,35.10
2023-06-23T16:58:59.230Z,39.30
2023-06-23T17:01:26.611Z,53.70
2023-06-23T17:03:53.949Z,78.20
2023-06-23T17:06:21.250Z,90.20
2023-06-23T17:08:48.495Z,70.60
2023-06-23T17:11:16.431Z,54.90
2023-06-23T17:13:44.370Z,44.00
2023-06-23T17:16:11.838Z,46.90
2023-06-23T17:18:39.141Z,46.10
2023-06-23T17:21:06.457Z,53.50
2023-06-23T17:23:33.804Z,41.50
2023-06-23T17:26:01.174Z,55.20
2023-06-23T17:28:28.441Z,44.50
2023-06-23T17:30:55.717Z,50.20
2023-06-23T17:33:24.633Z,39.10
2023-06-23T17:35:52.164Z,35.20
2023-06-23T17:38:19.469Z,41.50
2023-06-23T17:40:46.717Z,33.80
2023-06-23T17:43:14.059Z,27.80
2023-06-23T17:45:41.362Z,24.40
2023-06-23T17:48:08.796Z,16.40
2023-06-23T17:50:36.114Z,23.60
2023-06-23T17:53:04.590Z,24.70
2023-06-23T17:55:32.007Z,17.60
2023-06-23T17:57:59.493Z,21.10
2023-06-23T18:00:26.846Z,17.00
2023-06-23T18:02:54.441Z,29.40
2023-06-23T18:05:21.997Z,15.80
2023-06-23T18:07:49.309Z,11.30
2023-06-23T18:10:16.728Z,22.60
2023-06-23T18:12:43.960Z,21.00
2023-06-23T18:15:11.527Z,13.60
2023-06-23T18:17:38.874Z,12.70
2023-06-23T18:20:06.963Z,17.70
2023-06-23T18:22:34.242Z,16.20
2023-06-23T18:25:01.541Z,22.60
2023-06-23T18:27:28.823Z,20.00
2023-06-23T18:29:56.134Z,23.50
2023-06-23T18:32:36.835Z,16.70
2023-06-23T18:35:04.608Z,26.10
2023-06-23T18:37:32.522Z,26.10
2023-06-23T18:40:00.246Z,31.00
2023-06-23T18:42:29.362Z,28.40
2023-06-23T18:44:56.608Z,27.80
2023-06-23T18:47:24.241Z,28.30
2023-06-23T18:49:51.594Z,30.10
2023-06-23T18:52:19.081Z,35.10
2023-06-23T18:54:46.405Z,36.50
2023-06-23T18:57:14.008Z,42.40
2023-06-23T18:59:41.265Z,56.00
2023-06-23T19:02:08.523Z,59.50
2023-06-23T19:04:35.734Z,64.60
2023-06-23T19:07:03.142Z,47.10
2023-06-23T19:09:30.508Z,48.60
2023-06-23T19:11:58.089Z,56.20
2023-06-23T19:14:25.358Z,50.30
2023-06-23T19:16:54.110Z,68.40
2023-06-23T19:19:22.547Z,63.00
2023-06-23T19:21:49.963Z,47.50
2023-06-23T19:24:17.266Z,46.70
2023-06-23T19:26:45.310Z,61.90
2023-06-23T19:29:12.666Z,58.60
2023-06-23T19:31:40.049Z,53.30
2023-06-23T19:34:07.879Z,59.10
2023-06-23T19:36:35.336Z,54.30
2023-06-23T19:39:02.617Z,45.30
2023-06-23T19:41:31.546Z,28.00
2023-06-23T19:44:01.616Z,17.80
2023-06-23T19:46:28.957Z,1.00
2023-06-23T19:48:56.701Z,1.30
2023-06-23T19:51:23.979Z,1.00
2023-06-23T19:53:51.270Z,8.90
2023-06-23T19:56:18.716Z,8.30
2023-06-23T19:58:46.098Z,15.10
2023-06-23T20:01:18.433Z,13.20
2023-06-23T20:03:47.226Z,9.70
2023-06-23T20:06:14.804Z,15.30
2023-06-23T20:08:43.432Z,13.20
2023-06-23T20:11:13.274Z,17.40
2023-06-23T20:13:40.768Z,4.80
2023-06-23T20:16:08.002Z,4.50
2023-06-23T20:18:35.794Z,15.40
2023-06-23T20:21:03.301Z,7.30
2023-06-23T20:23:31.399Z,4.30
2023-06-23T20:25:59.467Z,10.60
2023-06-23T20:28:26.714Z,12.00
2023-06-23T20:30:54.253Z,10.40
2023-06-23T20:33:21.516Z,12.70
2023-06-23T20:35:51.789Z,15.50
2023-06-23T20:38:19.329Z,28.50
2023-06-23T20:40:46.612Z,12.80
2023-06-23T20:43:14.006Z,15.30
2023-06-23T20:45:41.799Z,12.30
2023-06-23T20:48:09.257Z,23.80
2023-06-23T20:50:36.991Z,30.30
2023-06-23T20:53:04.589Z,29.70
2023-06-23T20:55:31.870Z,37.00
2023-06-23T20:57:59.482Z,39.20
2023-06-23T21:00:26.856Z,39.70
2023-06-23T21:02:54.252Z,28.50
2023-06-23T21:05:21.566Z,21.10
2023-06-23T21:07:48.922Z,16.50
2023-06-23T21:10:28.011Z,24.30
2023-06-23T21:12:56.822Z,23.80
2023-06-23T21:15:27.220Z,27.60
2023-06-23T21:17:54.987Z,29.30
2023-06-23T21:20:24.540Z,32.10
2023-06-23T21:22:52.635Z,29.00
2023-06-23T21:25:20.613Z,35.40
2023-06-23T21:27:48.938Z,42.20
2023-06-23T21:30:17.270Z,28.10
2023-06-23T21:32:45.216Z,24.50
2023-06-23T21:35:13.755Z,28.00
2023-06-23T21:37:44.348Z,26.10
2023-06-23T21:40:18.378Z,14.20
2023-06-23T21:42:47.183Z,30.80
2023-06-23T21:45:14.756Z,38.80
2023-06-23T21:47:45.189Z,42.80
2023-06-23T21:50:14.368Z,48.10
2023-06-23T21:52:41.864Z,62.20
2023-06-23T21:55:10.330Z,65.90
2023-06-23T21:57:37.830Z,44.30
2023-06-23T22:00:05.612Z,38.90
2023-06-23T22:02:33.060Z,45.30
2023-06-23T22:05:00.433Z,45.60
2023-06-23T22:07:27.840Z,33.70
2023-06-23T22:09:55.117Z,40.40
2023-06-23T22:12:22.603Z,59.70
2023-06-23T22:14:49.944Z,73.90
2023-06-23T22:17:18.129Z,65.40
2023-06-23T22:19:45.578Z,58.30
2023-06-23T22:22:13.107Z,32.80
2023-06-23T22:24:40.588Z,22.30
2023-06-23T22:27:07.844Z,32.60
2023-06-23T22:29:35.076Z,42.90
2023-06-23T22:32:02.462Z,42.30
2023-06-23T22:34:29.996Z,48.80
2023-06-23T22:36:57.318Z,41.80
2023-06-23T22:39:24.564Z,56.00
2023-06-23T22:41:52.010Z,65.80
2023-06-23T22:44:19.371Z,70.60
2023-06-23T22:46:46.652Z,90.60
2023-06-23T22:49:14.036Z,76.80
2023-06-23T22:51:41.355Z,90.60
2023-06-23T22:54:08.788Z,65.50
2023-06-23T22:56:36.088Z,56.10
2023-06-23T22:59:03.882Z,38.40
2023-06-23T23:01:31.280Z,39.10
2023-06-23T23:03:58.683Z,40.60
2023-06-23T23:06:26.236Z,46.30
2023-06-23T23:08:53.636Z,48.50
2023-06-23T23:11:21.016Z,58.30
2023-06-23T23:13:48.291Z,44.80
2023-06-23T23:16:16.409Z,44.60
2023-06-23T23:18:44.940Z,39.50
2023-06-23T23:21:12.853Z,46.20
2023-06-23T23:23:40.169Z,28.90
2023-06-23T23:26:07.601Z,27.70
2023-06-23T23:28:34.893Z,12.90
2023-06-23T23:31:02.246Z,22.20
2023-06-23T23:33:29.577Z,29.30
2023-06-23T23:36:02.385Z,23.90
2023-06-23T23:38:29.915Z,27.90
2023-06-23T23:40:59.163Z,19.10
2023-06-23T23:43:26.611Z,16.40
2023-06-23T23:45:53.982Z,12.10
2023-06-23T23:48:21.350Z,15.80
2023-06-23T23:50:48.594Z,20.80
2023-06-23T23:53:15.862Z,18.30
2023-06-23T23:55:43.136Z,22.10
2023-06-23T23:58:10.609Z,25.60
